Time;durP1;ratioP1;P1;durP2;ratioP2;P2;SDS_P1;SDS_P2;PMS_P1;PMS_P2;Temp;Humidity;BMP_temperature;BMP_pressure;BME280_temperature;BME280_humidity;BME280_pressure;Samples;Min_cycle;Max_cycle;Signal;HPM_P1;HPM_P2
2020/12/23 00:01:43;;;;;;;28.48;10.93;;;9.60;99.90;;;;;;5042350;28;20044;-66
2020/12/23 00:04:09;;;;;;;32.03;10.45;;;9.60;99.90;;;;;;5042222;28;20043;-65
2020/12/23 00:06:35;;;;;;;30.60;10.10;;;9.50;99.90;;;;;;5040636;28;20052;-65
2020/12/23 00:09:05;;;;;;;27.33;10.68;;;9.50;99.90;;;;;;5041565;28;20068;-66
2020/12/23 00:11:32;;;;;;;28.98;9.75;;;9.50;99.90;;;;;;5045917;28;20119;-65
2020/12/23 00:13:57;;;;;;;29.25;10.10;;;9.50;99.90;;;;;;5039267;28;20447;-65
2020/12/23 00:16:23;;;;;;;26.15;9.77;;;9.60;99.90;;;;;;5038466;28;20053;-64
2020/12/23 00:18:49;;;;;;;31.33;11.18;;;9.60;99.90;;;;;;5042566;28;20120;-64
2020/12/23 00:21:15;;;;;;;32.83;10.45;;;9.60;99.90;;;;;;5041439;28;20190;-65
2020/12/23 00:23:40;;;;;;;38.72;10.38;;;9.60;99.90;;;;;;5042570;28;20497;-65
2020/12/23 00:26:11;;;;;;;42.47;12.15;;;9.60;99.90;;;;;;5042717;28;20454;-65
2020/12/23 00:28:37;;;;;;;40.28;12.23;;;9.60;99.90;;;;;;5036531;28;20137;-65
2020/12/23 00:31:02;;;;;;;41.83;12.32;;;9.60;99.90;;;;;;5042879;28;20111;-66
2020/12/23 00:33:28;;;;;;;39.95;12.27;;;9.60;99.90;;;;;;5039202;28;20558;-65
2020/12/23 00:35:54;;;;;;;42.80;11.18;;;9.60;99.90;;;;;;5038620;28;20041;-65
2020/12/23 00:38:19;;;;;;;35.42;10.93;;;9.70;99.90;;;;;;5038223;28;20032;-65
2020/12/23 00:40:45;;;;;;;38.25;12.50;;;9.70;99.90;;;;;;5037394;28;20049;-65
2020/12/23 00:43:10;;;;;;;35.28;11.60;;;9.60;99.90;;;;;;5039464;28;20030;-64
2020/12/23 00:45:36;;;;;;;52.95;12.85;;;9.60;99.90;;;;;;5039404;28;20059;-65
2020/12/23 00:48:03;;;;;;;47.05;12.63;;;9.70;99.90;;;;;;5042962;28;20497;-65
2020/12/23 00:50:28;;;;;;;53.90;14.10;;;9.60;99.90;;;;;;5040906;28;20068;-65
2020/12/23 00:52:54;;;;;;;50.00;13.35;;;9.60;99.90;;;;;;5034543;28;20056;-65
2020/12/23 00:55:19;;;;;;;37.47;11.38;;;9.70;99.90;;;;;;5040467;28;20048;-65
2020/12/23 00:57:45;;;;;;;39.60;11.55;;;9.70;99.90;;;;;;5042946;28;20383;-65
2020/12/23 01:00:10;;;;;;;37.95;11.82;;;9.70;99.90;;;;;;5041208;28;20033;-65
2020/12/23 01:02:36;;;;;;;38.00;11.95;;;9.80;99.90;;;;;;5036345;28;20098;-65
2020/12/23 01:05:02;;;;;;;36.42;11.32;;;9.70;99.90;;;;;;5038446;28;20083;-65
2020/12/23 01:07:27;;;;;;;32.42;11.48;;;9.70;99.90;;;;;;5045163;28;20143;-66
2020/12/23 01:09:54;;;;;;;37.67;11.40;;;9.70;99.90;;;;;;5042942;28;20471;-64
2020/12/23 01:12:19;;;;;;;39.70;13.05;;;9.70;99.90;;;;;;5044127;28;20090;-64
2020/12/23 01:14:45;;;;;;;46.38;11.93;;;9.70;99.90;;;;;;5039786;28;20045;-65
2020/12/23 01:17:14;;;;;;;51.97;12.63;;;9.70;99.90;;;;;;5040435;28;20041;-66
2020/12/23 01:19:40;;;;;;;41.53;11.50;;;9.70;99.90;;;;;;5041375;28;20041;-65
2020/12/23 01:22:06;;;;;;;37.33;11.95;;;9.70;99.90;;;;;;5040064;28;20037;-65
2020/12/23 01:24:32;;;;;;;45.42;12.75;;;9.70;99.90;;;;;;5041921;28;20036;-66
2020/12/23 01:26:57;;;;;;;44.28;12.82;;;9.70;99.90;;;;;;5038686;28;20383;-66
2020/12/23 01:29:23;;;;;;;43.22;13.05;;;9.70;99.90;;;;;;5043299;28;20048;-64
2020/12/23 01:31:48;;;;;;;52.30;13.82;;;9.80;99.90;;;;;;5038218;28;20033;-65
2020/12/23 01:34:14;;;;;;;49.20;14.10;;;9.70;99.90;;;;;;5041909;28;20040;-65
2020/12/23 01:36:39;;;;;;;57.38;14.35;;;9.70;99.90;;;;;;5040924;28;20078;-65
2020/12/23 01:39:05;;;;;;;58.60;15.85;;;9.70;99.90;;;;;;5041179;28;20133;-65
2020/12/23 01:41:30;;;;;;;42.83;13.25;;;9.70;99.90;;;;;;5041525;28;20041;-65
2020/12/23 01:43:58;;;;;;;37.72;13.00;;;9.70;99.90;;;;;;5038668;28;20033;-64
2020/12/23 01:46:32;;;;;;;47.60;14.45;;;9.80;99.90;;;;;;5040576;28;20057;-65
2020/12/23 01:49:00;;;;;;;48.42;14.82;;;9.80;99.90;;;;;;5040436;28;20124;-65
2020/12/23 01:51:26;;;;;;;42.50;13.60;;;9.80;99.90;;;;;;5042082;28;20029;-65
2020/12/23 01:53:53;;;;;;;44.72;14.68;;;9.90;99.90;;;;;;5037987;28;20029;-65
2020/12/23 01:56:21;;;;;;;44.10;13.00;;;9.90;99.90;;;;;;5038818;28;20487;-65
2020/12/23 01:58:48;;;;;;;46.58;14.88;;;9.90;99.90;;;;;;5039445;28;20030;-65
2020/12/23 02:01:20;;;;;;;58.22;15.48;;;9.80;99.90;;;;;;5040854;28;20029;-65
2020/12/23 02:03:49;;;;;;;41.83;13.98;;;9.80;99.90;;;;;;5037549;28;20065;-65
2020/12/23 02:06:14;;;;;;;59.20;13.80;;;9.90;99.90;;;;;;5041045;28;20053;-65
2020/12/23 02:08:42;;;;;;;47.38;13.85;;;9.80;99.90;;;;;;5038306;28;20092;-65
2020/12/23 02:11:13;;;;;;;45.08;13.38;;;9.90;99.90;;;;;;5041535;28;20057;-64
2020/12/23 02:13:43;;;;;;;50.70;14.88;;;9.80;99.90;;;;;;5039542;28;20128;-65
2020/12/23 02:16:10;;;;;;;51.47;14.75;;;9.90;99.90;;;;;;5041233;28;20041;-65
2020/12/23 02:18:36;;;;;;;52.42;13.85;;;9.90;99.90;;;;;;5040011;28;20041;-65
2020/12/23 02:21:02;;;;;;;43.05;14.02;;;9.90;99.90;;;;;;5039490;28;20044;-65
2020/12/23 02:23:28;;;;;;;43.53;14.48;;;9.90;99.90;;;;;;5039348;28;20029;-64
2020/12/23 02:25:53;;;;;;;45.35;14.18;;;9.90;99.90;;;;;;5038117;28;20394;-65
2020/12/23 02:28:21;;;;;;;50.88;15.45;;;9.90;99.90;;;;;;5042614;28;20037;-69
2020/12/23 02:30:57;;;;;;;52.28;15.45;;;9.90;99.90;;;;;;5042128;28;20554;-64
2020/12/23 02:33:23;;;;;;;70.57;18.58;;;9.90;99.90;;;;;;5065564;23;20055;-60
2020/12/23 02:35:48;;;;;;;67.00;18.25;;;9.90;99.90;;;;;;5035026;28;20041;-60
2020/12/23 02:38:14;;;;;;;60.22;17.23;;;9.90;99.90;;;;;;5041380;28;20374;-60
2020/12/23 02:40:39;;;;;;;66.10;18.90;;;10.00;99.90;;;;;;5038767;28;20039;-59
2020/12/23 02:43:05;;;;;;;87.63;18.80;;;10.00;99.90;;;;;;5040176;28;20044;-60
2020/12/23 02:45:30;;;;;;;74.82;18.55;;;10.00;99.90;;;;;;5039463;28;20047;-59
2020/12/23 02:47:56;;;;;;;66.57;17.98;;;10.00;99.90;;;;;;5039455;28;20048;-60
2020/12/23 02:50:21;;;;;;;72.15;18.42;;;10.00;99.90;;;;;;5041601;28;20098;-59
2020/12/23 02:52:47;;;;;;;95.40;20.50;;;10.00;99.90;;;;;;5037912;28;20025;-60
2020/12/23 02:55:12;;;;;;;85.03;18.85;;;10.10;99.90;;;;;;5041157;28;20048;-59
2020/12/23 02:57:38;;;;;;;79.45;20.08;;;10.10;99.90;;;;;;5038441;28;20065;-60
2020/12/23 03:00:05;;;;;;;77.82;19.25;;;10.10;99.90;;;;;;5040616;28;20434;-59
2020/12/23 03:02:30;;;;;;;87.18;18.88;;;10.10;99.90;;;;;;5039879;28;20040;-60
2020/12/23 03:04:56;;;;;;;77.63;20.88;;;10.10;99.90;;;;;;5037576;28;20030;-59
2020/12/23 03:07:21;;;;;;;106.55;22.52;;;10.20;99.90;;;;;;5041288;28;20036;-60
2020/12/23 03:09:47;;;;;;;80.13;19.98;;;10.20;99.90;;;;;;5037425;28;20026;-60
2020/12/23 03:12:12;;;;;;;96.00;20.60;;;10.20;99.90;;;;;;5040950;28;20115;-60
2020/12/23 03:14:38;;;;;;;72.25;18.33;;;10.20;99.90;;;;;;5038671;28;20044;-59
2020/12/23 03:17:03;;;;;;;129.18;23.63;;;10.20;99.90;;;;;;5039844;28;20045;-59
2020/12/23 03:19:29;;;;;;;111.70;21.33;;;10.20;99.90;;;;;;5039356;28;20032;-61
2020/12/23 03:21:54;;;;;;;87.45;22.27;;;10.10;99.90;;;;;;5037016;28;20490;-60
2020/12/23 03:24:20;;;;;;;78.68;19.05;;;10.20;99.90;;;;;;5040769;28;20040;-60
2020/12/23 03:26:45;;;;;;;120.20;23.73;;;10.20;99.90;;;;;;5036324;28;20037;-60
2020/12/23 03:29:11;;;;;;;85.53;20.88;;;10.20;99.90;;;;;;5039978;28;20039;-60
2020/12/23 03:31:37;;;;;;;79.65;20.63;;;10.20;99.90;;;;;;5038185;28;20301;-61
2020/12/23 03:34:02;;;;;;;74.90;20.38;;;10.20;99.90;;;;;;5039029;28;20379;-59
2020/12/23 03:36:28;;;;;;;113.10;22.92;;;10.20;99.90;;;;;;5039154;28;20033;-60
2020/12/23 03:38:53;;;;;;;154.13;25.65;;;10.20;99.90;;;;;;5036631;28;20037;-61
2020/12/23 03:41:19;;;;;;;131.48;24.35;;;10.20;99.90;;;;;;5040456;28;20029;-60
2020/12/23 03:43:44;;;;;;;112.22;22.75;;;10.20;99.90;;;;;;5037247;28;20036;-66
2020/12/23 03:46:10;;;;;;;88.80;22.70;;;10.20;99.90;;;;;;5041560;28;20031;-61
2020/12/23 03:48:35;;;;;;;89.15;22.17;;;10.20;99.90;;;;;;5038853;28;20390;-60
2020/12/23 03:51:01;;;;;;;87.25;23.63;;;10.20;99.90;;;;;;5039733;28;20514;-61
2020/12/23 03:53:26;;;;;;;93.88;22.70;;;10.20;99.90;;;;;;5039146;28;20449;-62
2020/12/23 03:55:52;;;;;;;92.80;23.90;;;10.20;99.90;;;;;;5038346;28;20045;-60
2020/12/23 03:58:18;;;;;;;89.95;24.38;;;10.30;99.90;;;;;;5039581;28;20044;-60
2020/12/23 04:00:44;;;;;;;111.80;26.20;;;10.30;99.90;;;;;;5037073;28;20034;-60
2020/12/23 04:03:09;;;;;;;85.68;23.85;;;10.30;99.90;;;;;;5039696;28;20029;-60
2020/12/23 04:05:36;;;;;;;93.03;24.55;;;10.30;99.90;;;;;;5037585;28;20037;-60
2020/12/23 04:08:02;;;;;;;84.40;22.73;;;10.30;99.90;;;;;;5039380;28;20045;-60
2020/12/23 04:10:27;;;;;;;97.22;24.67;;;10.40;99.90;;;;;;5038024;28;20037;-61
2020/12/23 04:12:53;;;;;;;100.78;25.17;;;10.40;99.90;;;;;;5037995;28;20042;-61
2020/12/23 04:15:18;;;;;;;119.45;26.55;;;10.40;99.90;;;;;;5039490;28;20047;-60
2020/12/23 04:17:45;;;;;;;99.72;26.10;;;10.40;99.90;;;;;;5037207;28;20029;-59
2020/12/23 04:20:10;;;;;;;92.10;24.83;;;10.40;99.90;;;;;;5039804;28;20545;-61
2020/12/23 04:22:36;;;;;;;111.07;25.85;;;10.40;99.90;;;;;;5037652;28;20124;-60
2020/12/23 04:25:05;;;;;;;87.95;23.20;;;10.40;99.90;;;;;;5039660;28;20038;-60
2020/12/23 04:27:30;;;;;;;88.13;23.80;;;10.40;99.90;;;;;;5037218;28;20367;-61
2020/12/23 04:29:56;;;;;;;81.88;22.05;;;10.50;99.90;;;;;;5038710;28;20508;-60
2020/12/23 04:32:22;;;;;;;103.05;25.45;;;10.50;99.90;;;;;;5038021;28;20049;-60
2020/12/23 04:34:48;;;;;;;109.43;26.05;;;10.50;99.90;;;;;;5038110;28;20037;-61
2020/12/23 04:37:13;;;;;;;93.15;24.52;;;10.50;99.90;;;;;;5039777;28;20489;-60
2020/12/23 04:39:39;;;;;;;96.43;24.27;;;10.50;99.90;;;;;;5037854;28;20037;-59
2020/12/23 04:42:04;;;;;;;80.82;22.88;;;10.60;99.90;;;;;;5043649;28;20114;-60
2020/12/23 04:44:31;;;;;;;88.47;23.63;;;10.60;99.90;;;;;;5041441;28;20040;-60
2020/12/23 04:46:57;;;;;;;87.10;24.52;;;10.60;99.90;;;;;;5042795;28;20474;-60
2020/12/23 04:49:23;;;;;;;107.80;26.08;;;10.60;99.90;;;;;;5042288;28;20544;-60
2020/12/23 04:51:55;;;;;;;73.22;21.30;;;10.60;99.90;;;;;;5041357;28;20076;-61
2020/12/23 04:54:22;;;;;;;75.93;21.58;;;10.70;99.90;;;;;;5042252;28;20074;-62
2020/12/23 04:56:48;;;;;;;76.07;21.83;;;10.70;99.90;;;;;;5041553;28;20413;-60
2020/12/23 04:59:14;;;;;;;65.47;20.30;;;10.70;99.90;;;;;;5043757;28;20291;-61
2020/12/23 05:01:40;;;;;;;66.05;20.38;;;10.70;99.90;;;;;;5039882;28;20036;-60
2020/12/23 05:04:06;;;;;;;68.13;19.73;;;10.70;99.90;;;;;;5043633;28;20033;-60
2020/12/23 05:06:35;;;;;;;58.25;20.60;;;10.70;99.90;;;;;;5040379;28;20541;-60
2020/12/23 05:09:03;;;;;;;71.65;20.15;;;10.80;99.90;;;;;;5042706;28;20033;-60
2020/12/23 05:11:31;;;;;;;66.68;20.08;;;10.80;99.90;;;;;;5040855;28;20033;-60
2020/12/23 05:13:56;;;;;;;52.28;18.17;;;10.80;99.90;;;;;;5042016;28;20048;-60
2020/12/23 05:16:23;;;;;;;66.32;20.50;;;10.80;99.90;;;;;;5042052;28;20513;-60
2020/12/23 05:18:54;;;;;;;58.70;20.02;;;10.80;99.90;;;;;;5039719;28;20030;-59
2020/12/23 05:21:21;;;;;;;50.58;18.00;;;10.80;99.90;;;;;;5043826;28;20036;-58
2020/12/23 05:23:48;;;;;;;55.17;19.42;;;10.80;99.90;;;;;;5042102;28;20029;-61
2020/12/23 05:26:15;;;;;;;66.22;20.25;;;10.90;99.90;;;;;;5040197;28;20037;-60
2020/12/23 05:28:42;;;;;;;59.95;19.65;;;10.80;99.90;;;;;;5042667;28;20040;-60
2020/12/23 05:31:12;;;;;;;57.85;19.45;;;10.90;99.90;;;;;;5039835;28;20040;-60
2020/12/23 05:33:43;;;;;;;69.88;20.33;;;10.80;99.90;;;;;;5035889;28;20072;-59
2020/12/23 05:36:14;;;;;;;71.18;20.27;;;10.80;99.90;;;;;;5043009;28;20044;-59
2020/12/23 05:38:40;;;;;;;69.47;20.38;;;10.80;99.90;;;;;;5036144;28;20037;-59
2020/12/23 05:41:08;;;;;;;53.13;18.73;;;10.80;99.90;;;;;;5042629;28;20433;-60
2020/12/23 05:43:34;;;;;;;57.40;18.50;;;10.80;99.90;;;;;;5038673;28;20029;-60
2020/12/23 05:46:03;;;;;;;60.88;18.92;;;10.80;99.90;;;;;;5039953;28;20037;-59
2020/12/23 05:48:31;;;;;;;53.85;18.10;;;10.80;99.90;;;;;;5041801;28;20489;-62
2020/12/23 05:50:57;;;;;;;47.17;17.67;;;10.80;99.90;;;;;;5039520;28;20033;-59
2020/12/23 05:53:27;;;;;;;51.08;17.67;;;10.90;99.90;;;;;;5041016;28;20026;-59
2020/12/23 05:55:53;;;;;;;44.30;16.33;;;10.90;99.90;;;;;;5040414;28;21528;-60
2020/12/23 05:58:20;;;;;;;54.13;17.33;;;10.90;99.90;;;;;;5040889;28;20037;-61
2020/12/23 06:00:50;;;;;;;49.50;17.70;;;10.90;99.90;;;;;;5041222;28;20033;-60
2020/12/23 06:03:22;;;;;;;50.33;16.10;;;10.90;99.90;;;;;;5040111;28;20139;-59
2020/12/23 06:05:57;;;;;;;46.10;16.75;;;11.00;99.90;;;;;;5041121;28;20074;-61
2020/12/23 06:08:33;;;;;;;47.42;17.05;;;10.90;99.90;;;;;;5041323;28;20038;-62
2020/12/23 06:11:18;;;;;;;39.03;15.07;;;11.00;99.90;;;;;;5039010;28;20060;-60
2020/12/23 06:14:07;;;;;;;57.05;17.38;;;11.00;99.90;;;;;;5039727;28;20029;-59
2020/12/23 06:16:36;;;;;;;48.47;16.60;;;11.00;99.90;;;;;;5034282;28;20056;-60
2020/12/23 06:19:22;;;;;;;45.50;16.52;;;11.00;99.90;;;;;;5042193;28;20036;-61
2020/12/23 06:21:50;;;;;;;50.42;15.85;;;11.00;99.90;;;;;;5037942;28;20041;-59
2020/12/23 06:24:15;;;;;;;45.03;15.07;;;11.00;99.90;;;;;;5041472;28;20085;-60
2020/12/23 06:26:46;;;;;;;52.50;15.18;;;11.00;99.90;;;;;;5039135;28;20129;-60
2020/12/23 06:29:14;;;;;;;43.80;14.20;;;11.10;99.90;;;;;;5040175;28;20033;-60
2020/12/23 06:31:50;;;;;;;40.25;13.70;;;11.00;99.90;;;;;;5038545;28;20164;-62
2020/12/23 06:34:19;;;;;;;38.22;12.77;;;11.00;99.90;;;;;;5040934;28;20102;-61
2020/12/23 06:36:46;;;;;;;36.13;12.95;;;11.10;99.90;;;;;;5039303;28;20034;-62
2020/12/23 06:39:24;;;;;;;32.05;12.68;;;11.10;99.90;;;;;;5041363;28;20226;-60
2020/12/23 06:41:52;;;;;;;33.20;11.82;;;11.10;99.90;;;;;;5040047;28;20128;-59
2020/12/23 06:44:18;;;;;;;30.95;11.65;;;11.10;99.90;;;;;;5038837;28;20032;-60
2020/12/23 06:46:59;;;;;;;27.98;10.15;;;11.10;99.90;;;;;;5039026;28;20409;-60
2020/12/23 06:49:53;;;;;;;25.05;9.90;;;11.10;99.90;;;;;;5039093;28;20493;-61
2020/12/23 06:52:22;;;;;;;24.50;10.20;;;11.20;99.90;;;;;;5038414;28;20030;-61
2020/12/23 06:54:54;;;;;;;24.60;9.75;;;11.20;99.90;;;;;;5039634;28;20045;-61
2020/12/23 06:57:38;;;;;;;32.55;11.95;;;11.20;99.90;;;;;;5040323;28;20514;-62
2020/12/23 07:00:04;;;;;;;27.02;10.52;;;11.20;99.90;;;;;;5033967;28;20044;-60
2020/12/23 07:02:35;;;;;;;27.08;10.95;;;11.20;99.90;;;;;;5040687;28;20037;-64
2020/12/23 07:05:01;;;;;;;26.55;10.80;;;11.20;99.90;;;;;;5032929;28;20393;-60
2020/12/23 07:07:40;;;;;;;30.95;11.10;;;11.30;99.90;;;;;;5040751;28;20040;-60
2020/12/23 07:10:17;;;;;;;24.55;10.63;;;11.30;99.90;;;;;;5034506;28;20052;-59
2020/12/23 07:12:45;;;;;;;26.02;9.32;;;11.20;99.90;;;;;;5041181;28;20037;-60
2020/12/23 07:15:19;;;;;;;26.77;10.43;;;11.30;99.90;;;;;;5038102;28;20075;-60
2020/12/23 07:17:46;;;;;;;21.83;8.88;;;11.30;99.90;;;;;;5039131;28;20041;-60
2020/12/23 07:20:13;;;;;;;24.27;9.90;;;11.30;99.90;;;;;;5039396;28;20036;-60
2020/12/23 07:22:39;;;;;;;22.10;8.93;;;11.30;99.90;;;;;;5037975;28;20068;-61
2020/12/23 07:25:06;;;;;;;21.50;9.23;;;11.40;99.90;;;;;;5038939;28;20323;-61
2020/12/23 07:27:32;;;;;;;19.08;8.85;;;11.30;99.90;;;;;;5035809;28;20129;-60
2020/12/23 07:30:08;;;;;;;17.55;8.55;;;11.30;99.90;;;;;;5039470;28;20037;-59
2020/12/23 07:32:34;;;;;;;19.05;8.80;;;11.40;99.90;;;;;;5033801;28;20049;-60
2020/12/23 07:35:00;;;;;;;18.23;8.20;;;11.40;99.90;;;;;;5040791;28;20083;-60
2020/12/23 07:37:39;;;;;;;16.67;7.80;;;11.40;99.90;;;;;;5034007;28;20589;-60
2020/12/23 07:40:15;;;;;;;16.98;8.32;;;11.40;99.90;;;;;;5035005;28;20038;-59
2020/12/23 07:42:47;;;;;;;16.02;8.02;;;11.40;99.90;;;;;;5039294;28;20025;-60
2020/12/23 07:45:13;;;;;;;15.90;7.95;;;11.40;99.90;;;;;;5033683;28;20413;-60
2020/12/23 07:47:38;;;;;;;19.60;7.88;;;11.40;99.90;;;;;;5032572;28;20033;-60
2020/12/23 07:50:05;;;;;;;15.77;7.57;;;11.50;99.90;;;;;;5030708;28;20083;-60
2020/12/23 07:52:32;;;;;;;15.38;7.18;;;11.50;99.90;;;;;;5033768;28;20121;-59
2020/12/23 07:55:11;;;;;;;13.27;6.72;;;11.50;99.90;;;;;;5031743;28;20057;-59
2020/12/23 07:57:37;;;;;;;10.93;5.88;;;11.50;99.90;;;;;;5029468;28;20039;-59
2020/12/23 08:00:07;;;;;;;13.02;6.82;;;11.40;99.90;;;;;;5040304;28;20119;-60
2020/12/23 08:02:34;;;;;;;13.70;7.18;;;11.50;99.90;;;;;;5032364;28;20509;-61
2020/12/23 08:04:59;;;;;;;10.60;5.88;;;11.50;99.90;;;;;;5038768;28;20389;-60
2020/12/23 08:07:25;;;;;;;10.23;5.63;;;11.50;99.90;;;;;;5036830;28;20029;-60
2020/12/23 08:09:51;;;;;;;12.82;6.90;;;11.50;99.90;;;;;;5039954;28;20052;-59
2020/12/23 08:12:18;;;;;;;11.02;5.75;;;11.50;99.90;;;;;;5037808;28;20489;-60
2020/12/23 08:14:45;;;;;;;8.70;4.97;;;11.50;99.90;;;;;;5033151;28;20040;-59
2020/12/23 08:17:19;;;;;;;8.10;4.40;;;11.50;99.90;;;;;;5038262;28;20030;-59
2020/12/23 08:19:44;;;;;;;8.38;4.32;;;11.60;99.90;;;;;;5037789;28;20567;-59
2020/12/23 08:22:11;;;;;;;6.60;3.55;;;11.50;99.90;;;;;;5040686;28;20033;-63
2020/12/23 08:24:37;;;;;;;5.15;3.15;;;11.50;99.90;;;;;;5037455;28;20450;-59
2020/12/23 08:27:03;;;;;;;7.25;3.70;;;11.60;99.90;;;;;;5039589;28;20112;-59
2020/12/23 08:29:29;;;;;;;7.72;3.78;;;11.60;99.90;;;;;;5034961;28;20033;-59
2020/12/23 08:31:56;;;;;;;9.00;4.13;;;11.50;99.90;;;;;;5034327;28;20117;-59
2020/12/23 08:34:25;;;;;;;11.20;4.32;;;11.50;99.90;;;;;;5038013;28;20135;-61
2020/12/23 08:36:53;;;;;;;8.93;4.32;;;11.50;99.90;;;;;;5035839;28;20037;-59
2020/12/23 08:39:25;;;;;;;8.50;4.95;;;11.50;99.90;;;;;;5037754;28;20025;-60
2020/12/23 08:41:52;;;;;;;7.65;4.97;;;11.60;99.90;;;;;;5038980;28;20025;-60
2020/12/23 08:44:21;;;;;;;10.48;5.03;;;11.60;99.90;;;;;;5037430;28;20029;-60
2020/12/23 08:46:47;;;;;;;9.35;5.43;;;11.60;99.90;;;;;;5025122;28;20535;-60
2020/12/23 08:49:14;;;;;;;10.73;6.00;;;11.60;99.90;;;;;;5027440;28;20041;-60
2020/12/23 08:51:40;;;;;;;10.18;5.68;;;11.60;99.90;;;;;;5037310;28;20037;-60
2020/12/23 08:54:15;;;;;;;11.48;5.55;;;11.60;99.90;;;;;;5039170;28;20114;-59
2020/12/23 08:56:47;;;;;;;9.07;5.53;;;11.60;99.90;;;;;;5030841;28;20076;-60
2020/12/23 08:59:15;;;;;;;8.68;5.22;;;11.60;99.90;;;;;;5039332;28;20254;-60
2020/12/23 09:01:41;;;;;;;9.40;5.05;;;11.60;99.90;;;;;;5038112;28;20036;-60
2020/12/23 09:04:09;;;;;;;9.18;5.03;;;11.60;99.90;;;;;;5037183;28;20033;-60
2020/12/23 09:06:38;;;;;;;11.00;5.68;;;11.70;99.90;;;;;;5036630;28;20032;-59
2020/12/23 09:09:17;;;;;;;7.80;4.97;;;11.70;99.90;;;;;;5032338;28;20037;-61
2020/12/23 09:11:47;;;;;;;8.55;5.18;;;11.60;99.90;;;;;;5037655;28;20186;-59
2020/12/23 09:14:27;;;;;;;10.60;4.85;;;11.70;99.90;;;;;;5037762;28;20037;-60
2020/12/23 09:16:58;;;;;;;7.95;3.72;;;11.60;99.90;;;;;;5034233;28;20159;-59
2020/12/23 09:19:45;;;;;;;7.88;4.68;;;11.60;99.90;;;;;;5035002;28;20079;-61
2020/12/23 09:22:12;;;;;;;8.45;4.47;;;11.70;99.90;;;;;;5036653;28;20033;-60
2020/12/23 09:24:38;;;;;;;9.57;4.72;;;11.70;99.90;;;;;;5037914;28;20502;-60
2020/12/23 09:27:24;;;;;;;7.70;4.03;;;11.70;99.90;;;;;;5040006;28;20033;-59
2020/12/23 09:29:50;;;;;;;10.32;4.75;;;11.70;99.90;;;;;;5041528;28;20555;-59
2020/12/23 09:32:16;;;;;;;9.38;4.00;;;11.70;99.90;;;;;;5041062;28;20033;-60
2020/12/23 09:34:42;;;;;;;6.82;3.42;;;11.60;99.90;;;;;;5039540;28;20038;-59
2020/12/23 09:37:07;;;;;;;7.47;3.60;;;11.60;99.90;;;;;;5041348;28;20460;-61
2020/12/23 09:39:37;;;;;;;7.18;3.63;;;11.60;99.90;;;;;;5041066;28;20034;-59
2020/12/23 09:42:05;;;;;;;6.22;3.15;;;11.60;99.90;;;;;;5040527;28;20029;-62
2020/12/23 09:44:33;;;;;;;5.57;2.65;;;11.60;99.90;;;;;;5041362;28;20497;-61
2020/12/23 09:46:58;;;;;;;8.38;3.03;;;11.60;99.90;;;;;;5035782;28;20056;-59
2020/12/23 09:49:25;;;;;;;6.43;3.10;;;11.60;99.90;;;;;;5041153;28;20025;-60
2020/12/23 09:51:51;;;;;;;6.45;2.92;;;11.60;99.90;;;;;;5032694;28;20038;-59
2020/12/23 09:54:17;;;;;;;7.40;2.97;;;11.60;99.90;;;;;;5033311;28;20041;-60
2020/12/23 09:56:50;;;;;;;7.22;3.33;;;11.60;99.90;;;;;;5041443;28;20037;-59
2020/12/23 09:59:16;;;;;;;10.32;3.67;;;11.60;99.90;;;;;;5039593;28;20064;-60
2020/12/23 10:01:41;;;;;;;6.07;3.95;;;11.60;99.90;;;;;;5041270;28;20057;-60
2020/12/23 10:04:07;;;;;;;9.88;3.33;;;11.50;99.90;;;;;;5039220;28;20036;-59
2020/12/23 10:06:32;;;;;;;6.50;3.65;;;11.60;99.90;;;;;;5040464;28;20033;-60
2020/12/23 10:08:58;;;;;;;6.63;3.00;;;11.50;99.90;;;;;;5036185;28;20585;-60
2020/12/23 10:11:24;;;;;;;6.50;3.50;;;11.50;99.90;;;;;;5040367;28;20039;-60
2020/12/23 10:13:49;;;;;;;7.20;3.65;;;11.50;99.90;;;;;;5039240;28;20487;-60
2020/12/23 10:16:15;;;;;;;10.38;3.50;;;11.50;99.90;;;;;;5041435;28;20124;-60
2020/12/23 10:18:40;;;;;;;6.78;3.53;;;11.50;99.90;;;;;;5036369;28;20505;-60
2020/12/23 10:21:06;;;;;;;7.38;3.35;;;11.50;99.90;;;;;;5040614;28;20605;-60
2020/12/23 10:23:32;;;;;;;6.63;3.42;;;11.50;99.90;;;;;;5036451;28;20558;-60
2020/12/23 10:25:57;;;;;;;6.18;3.25;;;11.50;99.90;;;;;;5034175;28;20448;-61
2020/12/23 10:28:25;;;;;;;7.60;3.65;;;11.50;99.90;;;;;;5033056;28;20497;-59
2020/12/23 10:30:50;;;;;;;5.22;2.75;;;11.50;99.90;;;;;;5032060;28;20056;-59
2020/12/23 10:33:16;;;;;;;8.15;4.10;;;11.50;99.90;;;;;;5033989;28;20033;-60
2020/12/23 10:35:41;;;;;;;7.32;3.92;;;11.50;99.90;;;;;;5033363;28;20083;-59
2020/12/23 10:38:07;;;;;;;7.03;4.22;;;11.50;99.90;;;;;;5033226;28;20034;-60
2020/12/23 10:40:33;;;;;;;10.02;3.83;;;11.50;99.90;;;;;;5033473;28;20096;-59
2020/12/23 10:42:58;;;;;;;7.65;4.10;;;11.50;99.90;;;;;;5033060;28;20033;-59
2020/12/23 10:45:24;;;;;;;8.57;4.35;;;11.50;99.90;;;;;;5033703;28;20056;-60
2020/12/23 10:47:49;;;;;;;7.65;4.22;;;11.50;99.90;;;;;;5032718;28;20112;-60
2020/12/23 10:50:15;;;;;;;9.23;4.30;;;11.50;99.90;;;;;;5034575;28;20119;-58
2020/12/23 10:52:40;;;;;;;8.00;4.82;;;11.50;99.90;;;;;;5033441;28;20409;-61
2020/12/23 10:55:06;;;;;;;8.48;4.65;;;11.60;99.90;;;;;;5038420;28;20037;-60
2020/12/23 10:57:33;;;;;;;8.48;4.43;;;11.50;99.90;;;;;;5039369;28;20444;-60
2020/12/23 10:59:59;;;;;;;8.80;4.20;;;11.50;99.90;;;;;;5041132;28;20048;-59
2020/12/23 11:02:25;;;;;;;7.07;3.90;;;11.50;99.90;;;;;;5038606;28;20274;-60
2020/12/23 11:04:51;;;;;;;7.55;3.85;;;11.50;99.90;;;;;;5040121;28;20533;-60
2020/12/23 11:07:16;;;;;;;8.85;4.25;;;11.50;99.90;;;;;;5037126;28;20068;-60
2020/12/23 11:09:42;;;;;;;6.78;4.05;;;11.50;99.90;;;;;;5040894;28;20128;-60
2020/12/23 11:12:08;;;;;;;7.53;3.88;;;11.50;99.90;;;;;;5038088;28;20032;-60
2020/12/23 11:14:34;;;;;;;8.48;3.92;;;11.60;99.90;;;;;;5039357;28;20041;-60
2020/12/23 11:16:59;;;;;;;8.98;3.75;;;11.60;99.90;;;;;;5037251;28;20034;-59
2020/12/23 11:19:25;;;;;;;7.95;3.40;;;11.60;99.90;;;;;;5038990;28;20401;-59
2020/12/23 11:21:50;;;;;;;5.50;2.80;;;11.60;99.90;;;;;;5037728;28;20056;-60
2020/12/23 11:24:16;;;;;;;6.63;2.58;;;11.60;99.90;;;;;;5040472;28;20085;-60
2020/12/23 11:26:41;;;;;;;11.32;3.40;;;11.60;99.90;;;;;;5040336;28;20535;-59
2020/12/23 11:29:07;;;;;;;4.80;2.55;;;11.60;99.90;;;;;;5036987;28;20032;-59
2020/12/23 11:31:34;;;;;;;3.65;2.03;;;11.60;99.90;;;;;;5038809;28;20498;-59
2020/12/23 11:34:01;;;;;;;3.95;1.90;;;11.60;99.90;;;;;;5039279;28;20510;-59
2020/12/23 11:36:27;;;;;;;3.28;1.63;;;11.60;99.90;;;;;;5037276;28;20037;-63
2020/12/23 11:38:53;;;;;;;3.67;1.50;;;11.60;99.90;;;;;;5036806;28;20041;-60
2020/12/23 11:41:18;;;;;;;4.38;1.35;;;11.60;99.90;;;;;;5038174;28;20040;-61
2020/12/23 11:43:44;;;;;;;4.25;1.60;;;11.60;99.90;;;;;;5036192;28;20448;-60
2020/12/23 11:46:10;;;;;;;2.53;1.20;;;11.60;99.90;;;;;;5037969;28;20038;-58
2020/12/23 11:48:36;;;;;;;2.47;1.13;;;11.50;99.90;;;;;;5035134;28;20069;-59
2020/12/23 11:51:05;;;;;;;4.40;0.82;;;11.50;99.90;;;;;;5035479;28;20048;-59
2020/12/23 11:53:31;;;;;;;2.90;0.98;;;11.50;99.90;;;;;;5039291;28;20079;-60
2020/12/23 11:55:56;;;;;;;3.08;1.05;;;11.50;99.90;;;;;;5038623;28;20505;-59
2020/12/23 11:58:22;;;;;;;1.45;0.70;;;11.50;99.90;;;;;;5036434;28;20041;-59
2020/12/23 12:00:50;;;;;;;3.10;0.80;;;11.50;99.90;;;;;;5042603;28;20060;-59
2020/12/23 12:03:15;;;;;;;1.88;0.82;;;11.50;99.90;;;;;;5036743;28;20489;-60
2020/12/23 12:05:41;;;;;;;4.80;1.20;;;11.60;99.90;;;;;;5039222;28;20117;-59
2020/12/23 12:08:08;;;;;;;1.08;0.73;;;11.60;99.90;;;;;;5039531;28;20049;-60
2020/12/23 12:10:34;;;;;;;1.88;0.95;;;11.60;99.90;;;;;;5033330;28;20056;-60
2020/12/23 12:13:01;;;;;;;3.58;1.10;;;11.60;99.90;;;;;;5035623;28;20059;-59
2020/12/23 12:15:27;;;;;;;3.30;1.25;;;11.60;99.90;;;;;;5033810;28;20040;-59
2020/12/23 12:17:52;;;;;;;2.75;1.70;;;11.60;99.90;;;;;;5029392;28;20058;-60
2020/12/23 12:20:19;;;;;;;3.03;1.95;;;11.60;99.90;;;;;;5029464;28;20553;-59
2020/12/23 12:22:45;;;;;;;3.50;2.03;;;11.60;99.90;;;;;;5026901;28;20045;-60
2020/12/23 12:25:13;;;;;;;5.25;3.00;;;11.70;99.90;;;;;;5032027;28;20065;-60
2020/12/23 12:27:39;;;;;;;7.07;3.33;;;11.70;99.90;;;;;;5030949;28;20120;-60
2020/12/23 12:30:05;;;;;;;7.03;4.25;;;11.70;99.90;;;;;;5026295;28;20113;-60
2020/12/23 12:32:31;;;;;;;6.72;4.32;;;11.70;99.90;;;;;;5033352;28;20041;-60
2020/12/23 12:34:56;;;;;;;6.80;4.10;;;11.70;99.90;;;;;;5026028;28;20152;-60
2020/12/23 12:37:22;;;;;;;5.63;3.63;;;11.80;99.90;;;;;;5037194;28;20558;-60